sensor_id;sensor_type;location;lat;lon;timestamp;P1;durP1;ratioP1;P2;durP2;ratioP2
25437;SDS011;13364;49.084;9.978;2023-04-16T00:00:27;6.65;;;5.95;;
25437;SDS011;13364;49.084;9.978;2023-04-16T00:02:54;7.22;;;5.95;;
25437;SDS011;13364;49.084;9.978;2023-04-16T00:05:22;6.90;;;6.07;;
25437;SDS011;13364;49.084;9.978;2023-04-16T00:07:49;6.55;;;5.72;;
25437;SDS011;13364;49.084;9.978;2023-04-16T00:10:16;7.30;;;6.03;;
25437;SDS011;13364;49.084;9.978;2023-04-16T00:12:44;6.10;;;5.50;;
25437;SDS011;13364;49.084;9.978;2023-04-16T00:15:11;5.57;;;4.97;;
25437;SDS011;13364;49.084;9.978;2023-04-16T00:20:56;6.93;;;5.60;;
25437;SDS011;13364;49.084;9.978;2023-04-16T00:23:23;5.78;;;5.18;;
25437;SDS011;13364;49.084;9.978;2023-04-16T00:25:50;5.65;;;5.00;;
25437;SDS011;13364;49.084;9.978;2023-04-16T00:28:19;7.22;;;5.60;;
25437;SDS011;13364;49.084;9.978;2023-04-16T00:30:46;5.80;;;5.10;;
25437;SDS011;13364;49.084;9.978;2023-04-16T00:33:13;5.70;;;5.10;;
25437;SDS011;13364;49.084;9.978;2023-04-16T00:35:41;6.75;;;5.05;;
25437;SDS011;13364;49.084;9.978;2023-04-16T00:38:10;5.85;;;5.07;;
25437;SDS011;13364;49.084;9.978;2023-04-16T00:40:37;6.28;;;5.22;;
25437;SDS011;13364;49.084;9.978;2023-04-16T00:43:04;6.40;;;5.07;;
25437;SDS011;13364;49.084;9.978;2023-04-16T00:45:31;5.60;;;5.00;;
25437;SDS011;13364;49.084;9.978;2023-04-16T00:47:58;5.57;;;4.97;;
25437;SDS011;13364;49.084;9.978;2023-04-16T00:50:26;5.63;;;5.07;;
25437;SDS011;13364;49.084;9.978;2023-04-16T00:52:53;5.72;;;4.82;;
25437;SDS011;13364;49.084;9.978;2023-04-16T00:55:21;5.28;;;4.13;;
25437;SDS011;13364;49.084;9.978;2023-04-16T00:57:49;5.43;;;4.57;;
25437;SDS011;13364;49.084;9.978;2023-04-16T01:00:16;5.10;;;4.60;;
25437;SDS011;13364;49.084;9.978;2023-04-16T01:02:43;4.95;;;4.45;;
25437;SDS011;13364;49.084;9.978;2023-04-16T01:05:10;4.60;;;4.13;;
25437;SDS011;13364;49.084;9.978;2023-04-16T01:07:37;4.43;;;4.03;;
25437;SDS011;13364;49.084;9.978;2023-04-16T01:10:04;4.40;;;4.00;;
25437;SDS011;13364;49.084;9.978;2023-04-16T01:12:32;4.07;;;3.63;;
25437;SDS011;13364;49.084;9.978;2023-04-16T01:14:59;4.50;;;4.10;;
25437;SDS011;13364;49.084;9.978;2023-04-16T01:17:26;3.40;;;3.10;;
25437;SDS011;13364;49.084;9.978;2023-04-16T01:19:53;4.13;;;3.72;;
25437;SDS011;13364;49.084;9.978;2023-04-16T01:22:26;4.20;;;3.65;;
25437;SDS011;13364;49.084;9.978;2023-04-16T01:24:53;5.05;;;4.57;;
25437;SDS011;13364;49.084;9.978;2023-04-16T01:27:21;4.30;;;3.75;;
25437;SDS011;13364;49.084;9.978;2023-04-16T01:29:48;4.28;;;3.50;;
25437;SDS011;13364;49.084;9.978;2023-04-16T01:32:21;3.83;;;3.50;;
25437;SDS011;13364;49.084;9.978;2023-04-16T01:34:48;4.35;;;3.92;;
25437;SDS011;13364;49.084;9.978;2023-04-16T01:37:15;4.55;;;4.07;;
25437;SDS011;13364;49.084;9.978;2023-04-16T01:39:44;4.25;;;3.85;;
25437;SDS011;13364;49.084;9.978;2023-04-16T01:42:11;3.85;;;3.50;;
25437;SDS011;13364;49.084;9.978;2023-04-16T01:44:38;5.22;;;4.10;;
25437;SDS011;13364;49.084;9.978;2023-04-16T01:47:05;4.30;;;3.90;;
25437;SDS011;13364;49.084;9.978;2023-04-16T01:53:20;4.38;;;3.83;;
25437;SDS011;13364;49.084;9.978;2023-04-16T01:55:48;4.18;;;3.33;;
25437;SDS011;13364;49.084;9.978;2023-04-16T01:58:15;5.07;;;3.92;;
25437;SDS011;13364;49.084;9.978;2023-04-16T02:00:43;4.15;;;3.75;;
25437;SDS011;13364;49.084;9.978;2023-04-16T02:03:10;3.97;;;3.50;;
25437;SDS011;13364;49.084;9.978;2023-04-16T02:08:09;4.07;;;3.70;;
25437;SDS011;13364;49.084;9.978;2023-04-16T02:10:36;4.35;;;3.95;;
25437;SDS011;13364;49.084;9.978;2023-04-16T02:13:04;4.65;;;3.85;;
25437;SDS011;13364;49.084;9.978;2023-04-16T02:15:31;4.05;;;3.65;;
25437;SDS011;13364;49.084;9.978;2023-04-16T02:17:58;4.75;;;3.58;;
25437;SDS011;13364;49.084;9.978;2023-04-16T02:20:25;4.53;;;4.00;;
25437;SDS011;13364;49.084;9.978;2023-04-16T02:22:57;4.82;;;3.60;;
25437;SDS011;13364;49.084;9.978;2023-04-16T02:25:24;4.95;;;3.55;;
25437;SDS011;13364;49.084;9.978;2023-04-16T02:27:53;4.00;;;3.55;;
25437;SDS011;13364;49.084;9.978;2023-04-16T02:30:35;4.15;;;3.75;;
25437;SDS011;13364;49.084;9.978;2023-04-16T02:33:03;4.72;;;4.20;;
25437;SDS011;13364;49.084;9.978;2023-04-16T02:35:34;4.57;;;4.18;;
25437;SDS011;13364;49.084;9.978;2023-04-16T02:38:03;4.35;;;3.90;;
25437;SDS011;13364;49.084;9.978;2023-04-16T02:40:33;4.97;;;4.05;;
25437;SDS011;13364;49.084;9.978;2023-04-16T02:43:00;4.95;;;4.43;;
25437;SDS011;13364;49.084;9.978;2023-04-16T02:45:27;4.30;;;3.90;;
25437;SDS011;13364;49.084;9.978;2023-04-16T02:47:57;6.25;;;4.53;;
25437;SDS011;13364;49.084;9.978;2023-04-16T02:50:24;5.68;;;4.78;;
25437;SDS011;13364;49.084;9.978;2023-04-16T02:52:51;5.45;;;4.50;;
25437;SDS011;13364;49.084;9.978;2023-04-16T02:55:18;5.57;;;4.03;;
25437;SDS011;13364;49.084;9.978;2023-04-16T02:57:45;5.32;;;4.57;;
25437;SDS011;13364;49.084;9.978;2023-04-16T03:00:12;5.45;;;4.80;;
25437;SDS011;13364;49.084;9.978;2023-04-16T03:02:39;6.90;;;5.32;;
25437;SDS011;13364;49.084;9.978;2023-04-16T03:05:08;6.43;;;5.22;;
25437;SDS011;13364;49.084;9.978;2023-04-16T03:07:35;6.15;;;5.35;;
25437;SDS011;13364;49.084;9.978;2023-04-16T03:10:05;5.53;;;4.50;;
25437;SDS011;13364;49.084;9.978;2023-04-16T03:12:32;6.38;;;5.03;;
25437;SDS011;13364;49.084;9.978;2023-04-16T03:14:59;6.68;;;5.35;;
25437;SDS011;13364;49.084;9.978;2023-04-16T03:17:26;6.80;;;5.65;;
25437;SDS011;13364;49.084;9.978;2023-04-16T03:19:54;9.05;;;5.63;;
25437;SDS011;13364;49.084;9.978;2023-04-16T03:22:21;6.45;;;5.70;;
25437;SDS011;13364;49.084;9.978;2023-04-16T03:24:48;6.65;;;5.53;;
25437;SDS011;13364;49.084;9.978;2023-04-16T03:27:15;5.95;;;5.18;;
25437;SDS011;13364;49.084;9.978;2023-04-16T03:29:44;7.20;;;5.50;;
25437;SDS011;13364;49.084;9.978;2023-04-16T03:32:11;7.90;;;5.85;;
25437;SDS011;13364;49.084;9.978;2023-04-16T03:34:38;7.10;;;5.03;;
25437;SDS011;13364;49.084;9.978;2023-04-16T03:37:06;7.38;;;5.78;;
25437;SDS011;13364;49.084;9.978;2023-04-16T03:39:35;6.43;;;5.13;;
25437;SDS011;13364;49.084;9.978;2023-04-16T03:42:02;10.90;;;6.55;;
25437;SDS011;13364;49.084;9.978;2023-04-16T03:44:29;7.25;;;6.22;;
25437;SDS011;13364;49.084;9.978;2023-04-16T03:46:56;6.57;;;5.53;;
25437;SDS011;13364;49.084;9.978;2023-04-16T03:49:23;8.75;;;6.57;;
25437;SDS011;13364;49.084;9.978;2023-04-16T03:51:50;8.02;;;6.13;;
25437;SDS011;13364;49.084;9.978;2023-04-16T03:54:17;8.60;;;6.30;;
25437;SDS011;13364;49.084;9.978;2023-04-16T03:56:52;7.53;;;6.07;;
25437;SDS011;13364;49.084;9.978;2023-04-16T03:59:19;7.40;;;6.00;;
25437;SDS011;13364;49.084;9.978;2023-04-16T04:01:46;8.63;;;6.47;;
25437;SDS011;13364;49.084;9.978;2023-04-16T04:04:14;9.90;;;6.78;;
25437;SDS011;13364;49.084;9.978;2023-04-16T04:06:41;8.27;;;6.63;;
25437;SDS011;13364;49.084;9.978;2023-04-16T04:09:10;10.13;;;7.35;;
25437;SDS011;13364;49.084;9.978;2023-04-16T04:11:37;10.40;;;6.70;;
25437;SDS011;13364;49.084;9.978;2023-04-16T04:14:04;7.30;;;5.75;;
25437;SDS011;13364;49.084;9.978;2023-04-16T04:16:32;8.95;;;6.35;;
25437;SDS011;13364;49.084;9.978;2023-04-16T04:19:00;8.73;;;6.75;;
25437;SDS011;13364;49.084;9.978;2023-04-16T04:21:27;9.07;;;6.97;;
25437;SDS011;13364;49.084;9.978;2023-04-16T04:23:54;9.20;;;6.28;;
25437;SDS011;13364;49.084;9.978;2023-04-16T04:26:22;12.05;;;7.07;;
25437;SDS011;13364;49.084;9.978;2023-04-16T04:28:49;9.50;;;6.80;;
25437;SDS011;13364;49.084;9.978;2023-04-16T04:31:17;10.73;;;7.43;;
25437;SDS011;13364;49.084;9.978;2023-04-16T04:33:44;10.45;;;7.72;;
25437;SDS011;13364;49.084;9.978;2023-04-16T04:36:11;10.00;;;7.68;;
25437;SDS011;13364;49.084;9.978;2023-04-16T04:38:38;10.35;;;7.53;;
25437;SDS011;13364;49.084;9.978;2023-04-16T04:41:05;9.15;;;6.63;;
25437;SDS011;13364;49.084;9.978;2023-04-16T04:43:35;11.02;;;7.53;;
25437;SDS011;13364;49.084;9.978;2023-04-16T04:48:53;11.15;;;7.20;;
25437;SDS011;13364;49.084;9.978;2023-04-16T04:51:21;9.00;;;7.13;;
25437;SDS011;13364;49.084;9.978;2023-04-16T04:53:48;9.10;;;6.78;;
25437;SDS011;13364;49.084;9.978;2023-04-16T04:56:15;9.20;;;7.18;;
25437;SDS011;13364;49.084;9.978;2023-04-16T04:58:42;12.10;;;7.45;;
25437;SDS011;13364;49.084;9.978;2023-04-16T05:01:09;9.68;;;6.70;;
25437;SDS011;13364;49.084;9.978;2023-04-16T05:03:36;9.43;;;6.55;;
25437;SDS011;13364;49.084;9.978;2023-04-16T05:06:04;11.38;;;6.82;;
25437;SDS011;13364;49.084;9.978;2023-04-16T05:08:32;12.70;;;7.18;;
25437;SDS011;13364;49.084;9.978;2023-04-16T05:10:59;10.75;;;7.05;;
25437;SDS011;13364;49.084;9.978;2023-04-16T05:13:26;10.60;;;6.07;;
25437;SDS011;13364;49.084;9.978;2023-04-16T05:15:53;10.27;;;6.60;;
25437;SDS011;13364;49.084;9.978;2023-04-16T05:18:20;11.02;;;7.78;;
25437;SDS011;13364;49.084;9.978;2023-04-16T05:20:47;10.85;;;6.47;;
25437;SDS011;13364;49.084;9.978;2023-04-16T05:23:14;9.80;;;6.30;;
25437;SDS011;13364;49.084;9.978;2023-04-16T05:25:41;10.77;;;6.90;;
25437;SDS011;13364;49.084;9.978;2023-04-16T05:28:09;10.02;;;6.57;;
25437;SDS011;13364;49.084;9.978;2023-04-16T05:30:36;9.80;;;6.72;;
25437;SDS011;13364;49.084;9.978;2023-04-16T05:33:03;9.05;;;6.15;;
25437;SDS011;13364;49.084;9.978;2023-04-16T05:35:30;9.65;;;6.45;;
25437;SDS011;13364;49.084;9.978;2023-04-16T05:37:57;9.10;;;6.35;;
25437;SDS011;13364;49.084;9.978;2023-04-16T05:40:24;11.07;;;6.60;;
25437;SDS011;13364;49.084;9.978;2023-04-16T05:42:51;9.23;;;6.18;;
25437;SDS011;13364;49.084;9.978;2023-04-16T05:45:18;9.45;;;5.70;;
25437;SDS011;13364;49.084;9.978;2023-04-16T05:50:39;9.20;;;6.38;;
25437;SDS011;13364;49.084;9.978;2023-04-16T05:53:06;11.20;;;6.72;;
25437;SDS011;13364;49.084;9.978;2023-04-16T05:55:34;8.02;;;5.72;;
25437;SDS011;13364;49.084;9.978;2023-04-16T06:00:31;10.73;;;7.35;;
25437;SDS011;13364;49.084;9.978;2023-04-16T06:02:58;11.63;;;7.72;;
25437;SDS011;13364;49.084;9.978;2023-04-16T06:05:26;11.18;;;6.97;;
25437;SDS011;13364;49.084;9.978;2023-04-16T06:07:54;11.80;;;7.45;;
25437;SDS011;13364;49.084;9.978;2023-04-16T06:10:22;11.95;;;7.70;;
25437;SDS011;13364;49.084;9.978;2023-04-16T06:12:49;12.25;;;8.70;;
25437;SDS011;13364;49.084;9.978;2023-04-16T06:15:16;13.13;;;8.43;;
25437;SDS011;13364;49.084;9.978;2023-04-16T06:17:43;12.23;;;8.55;;
25437;SDS011;13364;49.084;9.978;2023-04-16T06:20:10;13.82;;;9.15;;
25437;SDS011;13364;49.084;9.978;2023-04-16T06:22:37;13.48;;;9.05;;
25437;SDS011;13364;49.084;9.978;2023-04-16T06:25:05;12.20;;;9.52;;
25437;SDS011;13364;49.084;9.978;2023-04-16T06:27:32;16.20;;;10.27;;
25437;SDS011;13364;49.084;9.978;2023-04-16T06:29:59;15.63;;;10.18;;
25437;SDS011;13364;49.084;9.978;2023-04-16T06:32:26;16.05;;;10.68;;
25437;SDS011;13364;49.084;9.978;2023-04-16T06:34:53;16.23;;;10.38;;
25437;SDS011;13364;49.084;9.978;2023-04-16T06:37:21;18.10;;;10.82;;
25437;SDS011;13364;49.084;9.978;2023-04-16T06:39:48;17.20;;;11.10;;
25437;SDS011;13364;49.084;9.978;2023-04-16T06:42:15;17.42;;;11.57;;
25437;SDS011;13364;49.084;9.978;2023-04-16T06:44:43;17.92;;;10.98;;
25437;SDS011;13364;49.084;9.978;2023-04-16T06:47:10;15.15;;;10.80;;
25437;SDS011;13364;49.084;9.978;2023-04-16T06:49:38;21.23;;;12.35;;
25437;SDS011;13364;49.084;9.978;2023-04-16T06:52:05;18.45;;;11.82;;
25437;SDS011;13364;49.084;9.978;2023-04-16T06:54:32;18.50;;;12.10;;
25437;SDS011;13364;49.084;9.978;2023-04-16T06:56:59;20.40;;;12.13;;
25437;SDS011;13364;49.084;9.978;2023-04-16T06:59:26;20.20;;;12.70;;
25437;SDS011;13364;49.084;9.978;2023-04-16T07:01:53;17.88;;;12.77;;
25437;SDS011;13364;49.084;9.978;2023-04-16T07:04:20;18.38;;;11.98;;
25437;SDS011;13364;49.084;9.978;2023-04-16T07:06:48;17.38;;;12.05;;
25437;SDS011;13364;49.084;9.978;2023-04-16T07:09:15;19.92;;;12.40;;
25437;SDS011;13364;49.084;9.978;2023-04-16T07:11:43;20.50;;;12.68;;
25437;SDS011;13364;49.084;9.978;2023-04-16T07:14:10;19.63;;;12.82;;
25437;SDS011;13364;49.084;9.978;2023-04-16T07:16:37;19.90;;;12.77;;
25437;SDS011;13364;49.084;9.978;2023-04-16T07:19:05;21.38;;;14.25;;
25437;SDS011;13364;49.084;9.978;2023-04-16T07:21:32;20.33;;;12.98;;
25437;SDS011;13364;49.084;9.978;2023-04-16T07:24:00;19.80;;;12.90;;
25437;SDS011;13364;49.084;9.978;2023-04-16T07:26:27;22.15;;;13.88;;
25437;SDS011;13364;49.084;9.978;2023-04-16T07:28:53;20.85;;;13.75;;
25437;SDS011;13364;49.084;9.978;2023-04-16T07:31:20;22.92;;;13.82;;
25437;SDS011;13364;49.084;9.978;2023-04-16T07:33:48;22.15;;;13.65;;
25437;SDS011;13364;49.084;9.978;2023-04-16T07:36:15;19.77;;;13.07;;
25437;SDS011;13364;49.084;9.978;2023-04-16T07:38:41;19.05;;;13.40;;
25437;SDS011;13364;49.084;9.978;2023-04-16T07:41:09;17.15;;;12.15;;
25437;SDS011;13364;49.084;9.978;2023-04-16T07:43:36;19.75;;;11.73;;
25437;SDS011;13364;49.084;9.978;2023-04-16T07:46:03;20.52;;;12.00;;
25437;SDS011;13364;49.084;9.978;2023-04-16T07:48:30;20.50;;;13.95;;
25437;SDS011;13364;49.084;9.978;2023-04-16T07:50:57;19.60;;;12.27;;
25437;SDS011;13364;49.084;9.978;2023-04-16T07:53:24;18.90;;;12.70;;
25437;SDS011;13364;49.084;9.978;2023-04-16T07:55:51;18.33;;;12.45;;
25437;SDS011;13364;49.084;9.978;2023-04-16T07:58:18;19.50;;;13.18;;
25437;SDS011;13364;49.084;9.978;2023-04-16T08:00:45;19.73;;;11.65;;
25437;SDS011;13364;49.084;9.978;2023-04-16T08:03:14;20.27;;;13.35;;
25437;SDS011;13364;49.084;9.978;2023-04-16T08:05:42;18.77;;;12.25;;
25437;SDS011;13364;49.084;9.978;2023-04-16T08:08:08;19.60;;;13.27;;
25437;SDS011;13364;49.084;9.978;2023-04-16T08:10:36;19.40;;;11.82;;
25437;SDS011;13364;49.084;9.978;2023-04-16T08:13:03;16.90;;;12.05;;
25437;SDS011;13364;49.084;9.978;2023-04-16T08:15:31;17.63;;;12.30;;
25437;SDS011;13364;49.084;9.978;2023-04-16T08:17:58;20.20;;;12.55;;
25437;SDS011;13364;49.084;9.978;2023-04-16T08:20:25;18.13;;;11.65;;
25437;SDS011;13364;49.084;9.978;2023-04-16T08:22:52;19.42;;;11.85;;
25437;SDS011;13364;49.084;9.978;2023-04-16T08:25:20;16.33;;;11.52;;
25437;SDS011;13364;49.084;9.978;2023-04-16T08:27:49;19.80;;;12.27;;
25437;SDS011;13364;49.084;9.978;2023-04-16T08:30:16;18.30;;;12.27;;
25437;SDS011;13364;49.084;9.978;2023-04-16T08:32:43;17.15;;;11.02;;
25437;SDS011;13364;49.084;9.978;2023-04-16T08:35:14;16.10;;;11.40;;
25437;SDS011;13364;49.084;9.978;2023-04-16T08:37:41;14.52;;;9.63;;
25437;SDS011;13364;49.084;9.978;2023-04-16T08:40:08;13.60;;;9.85;;
25437;SDS011;13364;49.084;9.978;2023-04-16T08:42:39;16.15;;;10.90;;
25437;SDS011;13364;49.084;9.978;2023-04-16T08:45:18;15.80;;;10.88;;
25437;SDS011;13364;49.084;9.978;2023-04-16T08:47:49;15.65;;;10.05;;
25437;SDS011;13364;49.084;9.978;2023-04-16T08:50:21;14.98;;;9.82;;
25437;SDS011;13364;49.084;9.978;2023-04-16T08:52:55;14.68;;;10.98;;
25437;SDS011;13364;49.084;9.978;2023-04-16T08:55:30;12.88;;;9.73;;
25437;SDS011;13364;49.084;9.978;2023-04-16T08:58:19;16.88;;;10.60;;
25437;SDS011;13364;49.084;9.978;2023-04-16T09:00:48;14.98;;;10.18;;
25437;SDS011;13364;49.084;9.978;2023-04-16T09:03:15;15.23;;;10.48;;
25437;SDS011;13364;49.084;9.978;2023-04-16T09:05:42;15.05;;;10.38;;
25437;SDS011;13364;49.084;9.978;2023-04-16T09:08:10;15.65;;;9.80;;
25437;SDS011;13364;49.084;9.978;2023-04-16T09:10:37;16.70;;;10.60;;
25437;SDS011;13364;49.084;9.978;2023-04-16T09:13:04;14.95;;;9.85;;
25437;SDS011;13364;49.084;9.978;2023-04-16T09:15:33;11.77;;;7.20;;
25437;SDS011;13364;49.084;9.978;2023-04-16T09:18:01;15.23;;;9.90;;
25437;SDS011;13364;49.084;9.978;2023-04-16T09:20:28;14.27;;;9.20;;
25437;SDS011;13364;49.084;9.978;2023-04-16T09:22:55;12.95;;;9.10;;
25437;SDS011;13364;49.084;9.978;2023-04-16T09:25:22;17.17;;;11.05;;
25437;SDS011;13364;49.084;9.978;2023-04-16T09:27:51;16.05;;;10.23;;
25437;SDS011;13364;49.084;9.978;2023-04-16T09:32:49;15.20;;;10.23;;
25437;SDS011;13364;49.084;9.978;2023-04-16T09:35:19;13.30;;;10.00;;
25437;SDS011;13364;49.084;9.978;2023-04-16T09:37:56;12.80;;;9.52;;
25437;SDS011;13364;49.084;9.978;2023-04-16T09:40:23;14.40;;;8.93;;
25437;SDS011;13364;49.084;9.978;2023-04-16T09:42:55;12.48;;;8.30;;
25437;SDS011;13364;49.084;9.978;2023-04-16T09:45:23;11.05;;;8.32;;
25437;SDS011;13364;49.084;9.978;2023-04-16T09:47:50;11.07;;;8.07;;
25437;SDS011;13364;49.084;9.978;2023-04-16T09:50:18;11.68;;;8.52;;
25437;SDS011;13364;49.084;9.978;2023-04-16T09:52:48;10.88;;;7.78;;
25437;SDS011;13364;49.084;9.978;2023-04-16T09:55:21;11.05;;;7.68;;
25437;SDS011;13364;49.084;9.978;2023-04-16T09:57:49;11.82;;;8.18;;
25437;SDS011;13364;49.084;9.978;2023-04-16T10:00:24;9.52;;;7.53;;
25437;SDS011;13364;49.084;9.978;2023-04-16T10:03:01;10.15;;;7.20;;
25437;SDS011;13364;49.084;9.978;2023-04-16T10:08:01;10.18;;;7.13;;
25437;SDS011;13364;49.084;9.978;2023-04-16T10:10:28;10.30;;;7.35;;
25437;SDS011;13364;49.084;9.978;2023-04-16T10:16:01;9.07;;;6.40;;
25437;SDS011;13364;49.084;9.978;2023-04-16T10:18:29;9.07;;;6.35;;
25437;SDS011;13364;49.084;9.978;2023-04-16T10:20:56;8.95;;;6.90;;
25437;SDS011;13364;49.084;9.978;2023-04-16T10:23:24;10.82;;;7.35;;
25437;SDS011;13364;49.084;9.978;2023-04-16T10:25:53;9.32;;;7.03;;
25437;SDS011;13364;49.084;9.978;2023-04-16T10:28:23;8.32;;;6.40;;
25437;SDS011;13364;49.084;9.978;2023-04-16T10:30:50;10.45;;;6.68;;
25437;SDS011;13364;49.084;9.978;2023-04-16T10:33:22;9.70;;;6.82;;
25437;SDS011;13364;49.084;9.978;2023-04-16T10:35:53;8.07;;;6.85;;
25437;SDS011;13364;49.084;9.978;2023-04-16T10:38:41;11.60;;;7.68;;
25437;SDS011;13364;49.084;9.978;2023-04-16T10:41:15;10.75;;;7.63;;
25437;SDS011;13364;49.084;9.978;2023-04-16T10:43:43;9.57;;;7.28;;
25437;SDS011;13364;49.084;9.978;2023-04-16T10:48:46;10.93;;;7.13;;
25437;SDS011;13364;49.084;9.978;2023-04-16T10:51:23;10.18;;;7.18;;
25437;SDS011;13364;49.084;9.978;2023-04-16T10:53:52;11.70;;;8.15;;
25437;SDS011;13364;49.084;9.978;2023-04-16T10:56:24;10.85;;;7.70;;
25437;SDS011;13364;49.084;9.978;2023-04-16T10:58:53;11.20;;;7.65;;
25437;SDS011;13364;49.084;9.978;2023-04-16T11:01:32;11.48;;;7.75;;
25437;SDS011;13364;49.084;9.978;2023-04-16T11:04:24;10.70;;;7.60;;
25437;SDS011;13364;49.084;9.978;2023-04-16T11:13:23;9.65;;;7.20;;
25437;SDS011;13364;49.084;9.978;2023-04-16T11:15:50;8.52;;;7.03;;
25437;SDS011;13364;49.084;9.978;2023-04-16T11:18:18;9.13;;;6.80;;
25437;SDS011;13364;49.084;9.978;2023-04-16T11:20:45;9.85;;;6.50;;
25437;SDS011;13364;49.084;9.978;2023-04-16T11:23:12;8.50;;;5.90;;
25437;SDS011;13364;49.084;9.978;2023-04-16T11:25:39;8.35;;;5.88;;
25437;SDS011;13364;49.084;9.978;2023-04-16T11:28:06;9.57;;;6.13;;
25437;SDS011;13364;49.084;9.978;2023-04-16T11:30:33;7.97;;;6.40;;
25437;SDS011;13364;49.084;9.978;2023-04-16T11:33:02;6.90;;;5.47;;
25437;SDS011;13364;49.084;9.978;2023-04-16T11:35:37;9.00;;;5.55;;
25437;SDS011;13364;49.084;9.978;2023-04-16T11:38:05;9.60;;;6.18;;
25437;SDS011;13364;49.084;9.978;2023-04-16T11:40:33;8.57;;;6.07;;
25437;SDS011;13364;49.084;9.978;2023-04-16T11:43:12;7.35;;;5.47;;
25437;SDS011;13364;49.084;9.978;2023-04-16T11:48:50;7.25;;;5.63;;
25437;SDS011;13364;49.084;9.978;2023-04-16T11:51:18;6.88;;;5.70;;
25437;SDS011;13364;49.084;9.978;2023-04-16T12:03:35;7.90;;;6.03;;
25437;SDS011;13364;49.084;9.978;2023-04-16T12:06:07;7.35;;;5.25;;
25437;SDS011;13364;49.084;9.978;2023-04-16T12:08:35;7.40;;;5.68;;
25437;SDS011;13364;49.084;9.978;2023-04-16T12:11:02;8.90;;;6.43;;
25437;SDS011;13364;49.084;9.978;2023-04-16T12:13:31;7.13;;;5.38;;
25437;SDS011;13364;49.084;9.978;2023-04-16T12:16:15;6.35;;;5.50;;
25437;SDS011;13364;49.084;9.978;2023-04-16T12:18:57;6.10;;;5.25;;
25437;SDS011;13364;49.084;9.978;2023-04-16T12:21:42;6.82;;;5.63;;
25437;SDS011;13364;49.084;9.978;2023-04-16T12:24:15;7.25;;;5.75;;
25437;SDS011;13364;49.084;9.978;2023-04-16T12:26:46;7.00;;;5.50;;
25437;SDS011;13364;49.084;9.978;2023-04-16T12:29:21;7.05;;;5.82;;
25437;SDS011;13364;49.084;9.978;2023-04-16T12:31:50;6.07;;;5.47;;
25437;SDS011;13364;49.084;9.978;2023-04-16T12:34:18;7.78;;;6.30;;
25437;SDS011;13364;49.084;9.978;2023-04-16T12:37:06;7.22;;;6.00;;
25437;SDS011;13364;49.084;9.978;2023-04-16T12:39:41;6.53;;;5.40;;
25437;SDS011;13364;49.084;9.978;2023-04-16T12:42:08;6.95;;;5.63;;
25437;SDS011;13364;49.084;9.978;2023-04-16T12:44:36;8.13;;;5.90;;
25437;SDS011;13364;49.084;9.978;2023-04-16T12:47:04;7.10;;;5.53;;
25437;SDS011;13364;49.084;9.978;2023-04-16T12:49:32;8.23;;;5.47;;
25437;SDS011;13364;49.084;9.978;2023-04-16T12:51:59;6.88;;;5.68;;
25437;SDS011;13364;49.084;9.978;2023-04-16T12:54:26;7.43;;;5.70;;
25437;SDS011;13364;49.084;9.978;2023-04-16T12:56:55;8.13;;;6.22;;
25437;SDS011;13364;49.084;9.978;2023-04-16T12:59:26;7.20;;;5.30;;
25437;SDS011;13364;49.084;9.978;2023-04-16T13:01:53;6.40;;;5.35;;
25437;SDS011;13364;49.084;9.978;2023-04-16T13:04:20;7.70;;;6.10;;
25437;SDS011;13364;49.084;9.978;2023-04-16T13:06:51;6.95;;;5.90;;
25437;SDS011;13364;49.084;9.978;2023-04-16T13:09:18;7.80;;;6.00;;
25437;SDS011;13364;49.084;9.978;2023-04-16T13:11:45;8.20;;;6.65;;
25437;SDS011;13364;49.084;9.978;2023-04-16T13:14:12;8.75;;;6.50;;
25437;SDS011;13364;49.084;9.978;2023-04-16T13:16:39;8.80;;;6.80;;
25437;SDS011;13364;49.084;9.978;2023-04-16T13:19:06;8.07;;;6.13;;
25437;SDS011;13364;49.084;9.978;2023-04-16T13:21:34;9.68;;;6.90;;
25437;SDS011;13364;49.084;9.978;2023-04-16T13:24:01;8.60;;;6.72;;
25437;SDS011;13364;49.084;9.978;2023-04-16T13:26:28;8.98;;;6.43;;
25437;SDS011;13364;49.084;9.978;2023-04-16T13:28:55;8.00;;;6.55;;
25437;SDS011;13364;49.084;9.978;2023-04-16T13:31:22;8.13;;;5.88;;
25437;SDS011;13364;49.084;9.978;2023-04-16T13:33:49;7.70;;;6.43;;
25437;SDS011;13364;49.084;9.978;2023-04-16T13:36:16;9.02;;;7.10;;
25437;SDS011;13364;49.084;9.978;2023-04-16T13:38:43;8.45;;;6.13;;
25437;SDS011;13364;49.084;9.978;2023-04-16T13:41:11;8.10;;;6.45;;
25437;SDS011;13364;49.084;9.978;2023-04-16T13:43:38;8.73;;;6.97;;
25437;SDS011;13364;49.084;9.978;2023-04-16T13:46:05;8.13;;;6.38;;
25437;SDS011;13364;49.084;9.978;2023-04-16T13:48:32;6.65;;;5.95;;
25437;SDS011;13364;49.084;9.978;2023-04-16T13:50:59;6.80;;;5.85;;
25437;SDS011;13364;49.084;9.978;2023-04-16T13:53:26;7.47;;;5.90;;
25437;SDS011;13364;49.084;9.978;2023-04-16T13:55:53;6.78;;;5.47;;
25437;SDS011;13364;49.084;9.978;2023-04-16T13:58:20;6.97;;;5.53;;
25437;SDS011;13364;49.084;9.978;2023-04-16T14:00:48;7.47;;;5.93;;
25437;SDS011;13364;49.084;9.978;2023-04-16T14:03:15;7.18;;;5.72;;
25437;SDS011;13364;49.084;9.978;2023-04-16T14:05:48;6.90;;;5.80;;
25437;SDS011;13364;49.084;9.978;2023-04-16T14:08:15;9.13;;;6.25;;
25437;SDS011;13364;49.084;9.978;2023-04-16T14:10:42;7.05;;;5.82;;
25437;SDS011;13364;49.084;9.978;2023-04-16T14:13:09;8.55;;;6.65;;
25437;SDS011;13364;49.084;9.978;2023-04-16T14:15:37;6.55;;;5.82;;
25437;SDS011;13364;49.084;9.978;2023-04-16T14:18:06;7.72;;;6.05;;
25437;SDS011;13364;49.084;9.978;2023-04-16T14:23:05;8.55;;;6.45;;
25437;SDS011;13364;49.084;9.978;2023-04-16T14:25:32;7.28;;;5.60;;
25437;SDS011;13364;49.084;9.978;2023-04-16T14:28:03;8.60;;;6.82;;
25437;SDS011;13364;49.084;9.978;2023-04-16T14:30:34;8.13;;;6.38;;
25437;SDS011;13364;49.084;9.978;2023-04-16T14:33:02;7.93;;;6.38;;
25437;SDS011;13364;49.084;9.978;2023-04-16T14:35:31;7.53;;;6.28;;
25437;SDS011;13364;49.084;9.978;2023-04-16T14:37:59;8.13;;;6.55;;
25437;SDS011;13364;49.084;9.978;2023-04-16T14:40:26;7.78;;;6.35;;
25437;SDS011;13364;49.084;9.978;2023-04-16T14:42:53;8.00;;;6.75;;
25437;SDS011;13364;49.084;9.978;2023-04-16T14:45:28;8.02;;;6.03;;
25437;SDS011;13364;49.084;9.978;2023-04-16T14:47:56;7.63;;;5.82;;
25437;SDS011;13364;49.084;9.978;2023-04-16T14:50:23;8.18;;;6.65;;
25437;SDS011;13364;49.084;9.978;2023-04-16T14:52:51;8.73;;;6.78;;
25437;SDS011;13364;49.084;9.978;2023-04-16T14:58:14;10.30;;;7.18;;
25437;SDS011;13364;49.084;9.978;2023-04-16T15:00:41;10.05;;;7.00;;
25437;SDS011;13364;49.084;9.978;2023-04-16T15:06:15;10.02;;;7.18;;
25437;SDS011;13364;49.084;9.978;2023-04-16T15:08:42;11.60;;;8.10;;
25437;SDS011;13364;49.084;9.978;2023-04-16T15:11:09;10.07;;;6.88;;
25437;SDS011;13364;49.084;9.978;2023-04-16T15:13:36;8.23;;;6.45;;
25437;SDS011;13364;49.084;9.978;2023-04-16T15:16:04;11.48;;;6.70;;
25437;SDS011;13364;49.084;9.978;2023-04-16T15:18:32;8.68;;;6.10;;
25437;SDS011;13364;49.084;9.978;2023-04-16T15:20:59;7.53;;;5.97;;
25437;SDS011;13364;49.084;9.978;2023-04-16T15:23:26;7.22;;;5.80;;
25437;SDS011;13364;49.084;9.978;2023-04-16T15:25:54;6.07;;;4.50;;
25437;SDS011;13364;49.084;9.978;2023-04-16T15:28:21;5.95;;;4.30;;
25437;SDS011;13364;49.084;9.978;2023-04-16T15:30:49;6.57;;;4.32;;
25437;SDS011;13364;49.084;9.978;2023-04-16T15:33:19;4.85;;;3.97;;
25437;SDS011;13364;49.084;9.978;2023-04-16T15:35:46;6.03;;;4.10;;
25437;SDS011;13364;49.084;9.978;2023-04-16T15:38:13;5.25;;;4.22;;
25437;SDS011;13364;49.084;9.978;2023-04-16T15:40:40;4.40;;;4.00;;
25437;SDS011;13364;49.084;9.978;2023-04-16T15:43:07;5.18;;;3.83;;